sensor_id;sensor_type;location;lat;lon;timestamp;pressure;altitude;pressure_sealevel;temperature;humidity
46944;BME280;32678;43.852;25.952;2022-08-21T00:04:36;100449.97;;;26.59;55.34
46944;BME280;32678;43.852;25.952;2022-08-21T00:09:43;100464.47;;;26.74;55.87
46944;BME280;32678;43.852;25.952;2022-08-21T00:14:41;100450.50;;;26.62;56.29
46944;BME280;32678;43.852;25.952;2022-08-21T00:19:39;100460.56;;;26.60;57.46
46944;BME280;32678;43.852;25.952;2022-08-21T00:24:36;100464.91;;;26.53;58.34
46944;BME280;32678;43.852;25.952;2022-08-21T00:29:33;100438.16;;;26.44;58.96
46944;BME280;32678;43.852;25.952;2022-08-21T00:34:30;100452.50;;;26.60;59.75
46944;BME280;32678;43.852;25.952;2022-08-21T00:39:28;100448.78;;;26.53;60.33
46944;BME280;32678;43.852;25.952;2022-08-21T00:44:24;100451.13;;;26.22;61.51
46944;BME280;32678;43.852;25.952;2022-08-21T00:49:21;100449.78;;;26.26;61.21
46944;BME280;32678;43.852;25.952;2022-08-21T00:54:19;100446.00;;;26.19;62.23
46944;BME280;32678;43.852;25.952;2022-08-21T00:59:20;100423.69;;;26.19;62.71
46944;BME280;32678;43.852;25.952;2022-08-21T01:04:17;100410.75;;;25.97;62.59
46944;BME280;32678;43.852;25.952;2022-08-21T01:09:14;100412.59;;;25.96;63.54
46944;BME280;32678;43.852;25.952;2022-08-21T01:14:11;100398.97;;;25.90;63.51
46944;BME280;32678;43.852;25.952;2022-08-21T01:19:09;100392.31;;;25.76;64.96
46944;BME280;32678;43.852;25.952;2022-08-21T01:24:08;100401.56;;;25.99;64.16
46944;BME280;32678;43.852;25.952;2022-08-21T01:29:05;100383.28;;;26.03;64.24
46944;BME280;32678;43.852;25.952;2022-08-21T01:34:03;100377.94;;;26.11;63.49
46944;BME280;32678;43.852;25.952;2022-08-21T01:39:00;100383.69;;;26.16;63.59
46944;BME280;32678;43.852;25.952;2022-08-21T01:43:58;100375.75;;;26.32;63.26
46944;BME280;32678;43.852;25.952;2022-08-21T01:48:55;100368.84;;;26.71;61.13
46944;BME280;32678;43.852;25.952;2022-08-21T01:53:52;100375.31;;;26.95;60.39
46944;BME280;32678;43.852;25.952;2022-08-21T01:58:48;100366.78;;;27.15;59.61
46944;BME280;32678;43.852;25.952;2022-08-21T02:03:46;100371.19;;;27.57;58.63
46944;BME280;32678;43.852;25.952;2022-08-21T02:08:43;100354.69;;;27.76;57.86
46944;BME280;32678;43.852;25.952;2022-08-21T02:13:40;100356.66;;;28.15;56.35
46944;BME280;32678;43.852;25.952;2022-08-21T02:18:37;100356.06;;;28.43;55.48
46944;BME280;32678;43.852;25.952;2022-08-21T02:23:34;100346.22;;;28.51;54.88
46944;BME280;32678;43.852;25.952;2022-08-21T02:28:31;100342.09;;;28.32;55.14
46944;BME280;32678;43.852;25.952;2022-08-21T02:33:28;100337.19;;;28.35;54.91
46944;BME280;32678;43.852;25.952;2022-08-21T02:38:26;100336.44;;;28.58;54.35
46944;BME280;32678;43.852;25.952;2022-08-21T02:43:25;100332.75;;;28.51;54.16
46944;BME280;32678;43.852;25.952;2022-08-21T02:48:24;100341.09;;;28.72;53.37
46944;BME280;32678;43.852;25.952;2022-08-21T02:53:21;100333.66;;;28.74;52.91
46944;BME280;32678;43.852;25.952;2022-08-21T02:58:22;100328.72;;;28.47;53.91
46944;BME280;32678;43.852;25.952;2022-08-21T03:03:23;100334.38;;;28.29;54.31
46944;BME280;32678;43.852;25.952;2022-08-21T03:08:20;100329.16;;;28.27;54.09
46944;BME280;32678;43.852;25.952;2022-08-21T03:13:22;100330.78;;;28.36;53.96
46944;BME280;32678;43.852;25.952;2022-08-21T03:18:18;100325.41;;;28.36;53.89
46944;BME280;32678;43.852;25.952;2022-08-21T03:23:16;100322.44;;;28.07;54.79
46944;BME280;32678;43.852;25.952;2022-08-21T03:28:16;100311.88;;;27.97;55.01
46944;BME280;32678;43.852;25.952;2022-08-21T03:33:12;100328.34;;;28.02;54.88
46944;BME280;32678;43.852;25.952;2022-08-21T03:38:11;100319.59;;;28.09;54.88
46944;BME280;32678;43.852;25.952;2022-08-21T03:43:09;100315.56;;;28.13;54.69
46944;BME280;32678;43.852;25.952;2022-08-21T03:48:07;100311.28;;;28.26;54.51
46944;BME280;32678;43.852;25.952;2022-08-21T03:53:05;100313.06;;;28.42;53.87
46944;BME280;32678;43.852;25.952;2022-08-21T03:58:02;100309.38;;;28.35;53.69
46944;BME280;32678;43.852;25.952;2022-08-21T04:03:13;100308.25;;;28.60;53.25
46944;BME280;32678;43.852;25.952;2022-08-21T04:08:10;100317.47;;;28.35;53.22
46944;BME280;32678;43.852;25.952;2022-08-21T04:13:07;100328.03;;;28.44;53.36
46944;BME280;32678;43.852;25.952;2022-08-21T04:18:04;100365.25;;;28.18;53.27
46944;BME280;32678;43.852;25.952;2022-08-21T04:23:02;100376.22;;;27.36;58.11
46944;BME280;32678;43.852;25.952;2022-08-21T04:27:59;100382.53;;;26.94;58.95
46944;BME280;32678;43.852;25.952;2022-08-21T04:32:56;100407.50;;;26.37;62.33
46944;BME280;32678;43.852;25.952;2022-08-21T04:37:54;100396.72;;;26.28;62.77
46944;BME280;32678;43.852;25.952;2022-08-21T04:42:52;100406.53;;;26.38;62.19
46944;BME280;32678;43.852;25.952;2022-08-21T04:47:49;100394.22;;;26.35;62.16
46944;BME280;32678;43.852;25.952;2022-08-21T04:52:48;100408.84;;;26.33;62.30
46944;BME280;32678;43.852;25.952;2022-08-21T04:57:45;100400.28;;;26.71;61.15
46944;BME280;32678;43.852;25.952;2022-08-21T05:02:45;100407.63;;;27.03;59.55
46944;BME280;32678;43.852;25.952;2022-08-21T05:07:43;100415.66;;;26.87;61.36
46944;BME280;32678;43.852;25.952;2022-08-21T05:12:42;100403.28;;;27.10;60.77
46944;BME280;32678;43.852;25.952;2022-08-21T05:17:42;100424.00;;;26.84;61.13
46944;BME280;32678;43.852;25.952;2022-08-21T05:22:49;100417.25;;;26.71;63.54
46944;BME280;32678;43.852;25.952;2022-08-21T05:27:46;100418.03;;;26.56;63.77
46944;BME280;32678;43.852;25.952;2022-08-21T05:32:47;100425.94;;;26.57;63.60
46944;BME280;32678;43.852;25.952;2022-08-21T05:37:44;100420.72;;;26.56;63.06
46944;BME280;32678;43.852;25.952;2022-08-21T05:42:45;100428.44;;;26.59;63.09
46944;BME280;32678;43.852;25.952;2022-08-21T05:47:50;100418.59;;;26.67;62.56
46944;BME280;32678;43.852;25.952;2022-08-21T05:52:47;100408.81;;;26.58;62.43
46944;BME280;32678;43.852;25.952;2022-08-21T05:57:45;100397.22;;;26.58;62.49
46944;BME280;32678;43.852;25.952;2022-08-21T06:02:41;100417.09;;;26.73;62.43
46944;BME280;32678;43.852;25.952;2022-08-21T06:07:38;100419.06;;;26.97;61.44
46944;BME280;32678;43.852;25.952;2022-08-21T06:12:35;100420.81;;;27.30;60.29
46944;BME280;32678;43.852;25.952;2022-08-21T06:17:37;100421.16;;;27.35;59.00
46944;BME280;32678;43.852;25.952;2022-08-21T06:22:34;100413.72;;;27.37;59.78
46944;BME280;32678;43.852;25.952;2022-08-21T06:27:31;100416.81;;;27.67;58.59
46944;BME280;32678;43.852;25.952;2022-08-21T06:32:28;100416.81;;;27.83;57.22
46944;BME280;32678;43.852;25.952;2022-08-21T06:37:26;100412.03;;;28.25;56.01
46944;BME280;32678;43.852;25.952;2022-08-21T06:42:23;100419.28;;;28.25;55.79
46944;BME280;32678;43.852;25.952;2022-08-21T06:47:24;100421.75;;;28.51;55.26
46944;BME280;32678;43.852;25.952;2022-08-21T06:52:21;100426.59;;;28.55;53.92
46944;BME280;32678;43.852;25.952;2022-08-21T06:57:18;100427.06;;;28.83;53.81
46944;BME280;32678;43.852;25.952;2022-08-21T07:02:15;100419.00;;;29.06;51.99
46944;BME280;32678;43.852;25.952;2022-08-21T07:07:11;100413.97;;;28.95;51.22
46944;BME280;32678;43.852;25.952;2022-08-21T07:12:08;100429.06;;;28.81;51.48
46944;BME280;32678;43.852;25.952;2022-08-21T07:17:06;100408.34;;;29.12;50.44
46944;BME280;32678;43.852;25.952;2022-08-21T07:22:03;100418.81;;;29.07;50.66
46944;BME280;32678;43.852;25.952;2022-08-21T07:27:00;100416.44;;;29.12;50.62
46944;BME280;32678;43.852;25.952;2022-08-21T07:31:57;100415.50;;;29.51;50.45
46944;BME280;32678;43.852;25.952;2022-08-21T07:36:55;100399.56;;;29.79;49.63
46944;BME280;32678;43.852;25.952;2022-08-21T07:41:52;100408.69;;;30.15;48.83
46944;BME280;32678;43.852;25.952;2022-08-21T07:46:49;100394.97;;;30.17;48.18
46944;BME280;32678;43.852;25.952;2022-08-21T07:51:46;100391.81;;;30.42;47.69
46944;BME280;32678;43.852;25.952;2022-08-21T07:56:43;100385.94;;;30.24;46.58
46944;BME280;32678;43.852;25.952;2022-08-21T08:01:40;100383.81;;;30.49;46.57
46944;BME280;32678;43.852;25.952;2022-08-21T08:06:37;100383.03;;;30.70;45.89
46944;BME280;32678;43.852;25.952;2022-08-21T08:11:34;100382.25;;;30.90;45.45
46944;BME280;32678;43.852;25.952;2022-08-21T08:16:32;100370.94;;;31.02;45.28
46944;BME280;32678;43.852;25.952;2022-08-21T08:21:31;100366.53;;;31.01;44.81
46944;BME280;32678;43.852;25.952;2022-08-21T08:26:30;100367.22;;;31.03;44.61
46944;BME280;32678;43.852;25.952;2022-08-21T08:31:27;100362.25;;;31.06;44.46
46944;BME280;32678;43.852;25.952;2022-08-21T08:36:31;100349.72;;;31.05;44.67
46944;BME280;32678;43.852;25.952;2022-08-21T08:41:31;100357.63;;;31.21;44.26
46944;BME280;32678;43.852;25.952;2022-08-21T08:46:31;100356.78;;;31.21;43.50
46944;BME280;32678;43.852;25.952;2022-08-21T08:51:34;100354.75;;;31.29;43.76
46944;BME280;32678;43.852;25.952;2022-08-21T08:56:34;100351.53;;;30.98;45.42
46944;BME280;32678;43.852;25.952;2022-08-21T09:01:31;100351.06;;;30.59;46.21
46944;BME280;32678;43.852;25.952;2022-08-21T09:06:37;100323.28;;;30.06;47.23
46944;BME280;32678;43.852;25.952;2022-08-21T09:11:41;100334.34;;;29.96;47.61
46944;BME280;32678;43.852;25.952;2022-08-21T09:16:44;100329.72;;;29.90;47.50
46944;BME280;32678;43.852;25.952;2022-08-21T09:21:46;100323.09;;;30.07;47.53
46944;BME280;32678;43.852;25.952;2022-08-21T09:26:54;100316.72;;;30.44;46.17
46944;BME280;32678;43.852;25.952;2022-08-21T09:31:53;100313.38;;;30.57;46.00
46944;BME280;32678;43.852;25.952;2022-08-21T09:36:51;100310.97;;;30.83;45.19
46944;BME280;32678;43.852;25.952;2022-08-21T09:41:49;100297.44;;;31.05;44.11
46944;BME280;32678;43.852;25.952;2022-08-21T09:46:51;100294.91;;;31.24;43.43
46944;BME280;32678;43.852;25.952;2022-08-21T09:51:49;100278.72;;;31.31;42.92
46944;BME280;32678;43.852;25.952;2022-08-21T09:56:54;100284.84;;;31.39;42.86
46944;BME280;32678;43.852;25.952;2022-08-21T10:02:24;100277.72;;;31.60;42.99
46944;BME280;32678;43.852;25.952;2022-08-21T10:07:23;100264.38;;;31.93;42.33
46944;BME280;32678;43.852;25.952;2022-08-21T10:12:22;100260.25;;;32.03;41.74
46944;BME280;32678;43.852;25.952;2022-08-21T10:17:23;100259.41;;;32.03;41.80
46944;BME280;32678;43.852;25.952;2022-08-21T10:22:28;100231.91;;;32.06;40.58
46944;BME280;32678;43.852;25.952;2022-08-21T10:27:31;100236.09;;;32.08;40.70
46944;BME280;32678;43.852;25.952;2022-08-21T10:32:36;100241.63;;;32.28;40.49
46944;BME280;32678;43.852;25.952;2022-08-21T10:37:39;100233.94;;;32.38;39.85
46944;BME280;32678;43.852;25.952;2022-08-21T10:42:46;100226.03;;;32.56;39.21
46944;BME280;32678;43.852;25.952;2022-08-21T10:47:46;100222.94;;;32.66;39.21
46944;BME280;32678;43.852;25.952;2022-08-21T10:53:04;100218.31;;;32.60;37.79
46944;BME280;32678;43.852;25.952;2022-08-21T10:58:05;100212.03;;;32.40;38.30
46944;BME280;32678;43.852;25.952;2022-08-21T11:03:05;100209.25;;;32.20;39.58
46944;BME280;32678;43.852;25.952;2022-08-21T11:08:06;100199.06;;;32.29;39.15
46944;BME280;32678;43.852;25.952;2022-08-21T11:13:07;100177.97;;;32.24;38.75
46944;BME280;32678;43.852;25.952;2022-08-21T11:18:12;100188.44;;;32.60;38.54
46944;BME280;32678;43.852;25.952;2022-08-21T11:23:13;100178.69;;;32.85;37.46
46944;BME280;32678;43.852;25.952;2022-08-21T11:28:13;100169.50;;;33.06;37.84
46944;BME280;32678;43.852;25.952;2022-08-21T11:33:18;100158.63;;;33.26;37.54
46944;BME280;32678;43.852;25.952;2022-08-21T11:38:26;100154.84;;;33.40;37.19
46944;BME280;32678;43.852;25.952;2022-08-21T11:43:30;100133.34;;;32.53;37.26
46944;BME280;32678;43.852;25.952;2022-08-21T11:48:34;100128.38;;;31.89;38.66
46944;BME280;32678;43.852;25.952;2022-08-21T11:53:34;100134.38;;;32.52;37.59
46944;BME280;32678;43.852;25.952;2022-08-21T11:58:35;100133.97;;;32.94;36.72
46944;BME280;32678;43.852;25.952;2022-08-21T12:03:34;100115.19;;;33.13;36.74
46944;BME280;32678;43.852;25.952;2022-08-21T12:08:32;100114.38;;;32.92;36.70
46944;BME280;32678;43.852;25.952;2022-08-21T12:13:30;100113.28;;;33.26;36.54
46944;BME280;32678;43.852;25.952;2022-08-21T12:18:37;100112.13;;;33.53;36.33
46944;BME280;32678;43.852;25.952;2022-08-21T12:23:43;100105.00;;;33.59;34.88
46944;BME280;32678;43.852;25.952;2022-08-21T12:28:41;100098.09;;;33.63;33.02
46944;BME280;32678;43.852;25.952;2022-08-21T12:33:39;100100.22;;;33.55;33.15
46944;BME280;32678;43.852;25.952;2022-08-21T12:38:39;100090.66;;;33.45;32.34
46944;BME280;32678;43.852;25.952;2022-08-21T12:43:42;100094.09;;;32.95;34.21
46944;BME280;32678;43.852;25.952;2022-08-21T12:48:41;100086.97;;;32.28;34.80
46944;BME280;32678;43.852;25.952;2022-08-21T12:53:42;100075.22;;;32.01;35.67
46944;BME280;32678;43.852;25.952;2022-08-21T12:58:43;100088.72;;;31.81;35.42
46944;BME280;32678;43.852;25.952;2022-08-21T13:03:41;100084.03;;;31.56;35.50
46944;BME280;32678;43.852;25.952;2022-08-21T13:08:41;100113.03;;;31.21;39.26
46944;BME280;32678;43.852;25.952;2022-08-21T13:13:47;100111.69;;;29.97;43.46
46944;BME280;32678;43.852;25.952;2022-08-21T13:18:52;100088.41;;;29.46;44.35
46944;BME280;32678;43.852;25.952;2022-08-21T13:23:49;100124.94;;;29.04;44.73
46944;BME280;32678;43.852;25.952;2022-08-21T13:28:47;100130.53;;;28.88;47.56
46944;BME280;32678;43.852;25.952;2022-08-21T13:33:44;100128.56;;;28.36;49.26
46944;BME280;32678;43.852;25.952;2022-08-21T13:38:42;100122.22;;;28.29;48.81
46944;BME280;32678;43.852;25.952;2022-08-21T13:43:43;100120.63;;;28.80;47.85
46944;BME280;32678;43.852;25.952;2022-08-21T13:48:41;100131.25;;;28.82;49.11
46944;BME280;32678;43.852;25.952;2022-08-21T13:53:45;100130.66;;;28.72;52.72
46944;BME280;32678;43.852;25.952;2022-08-21T13:58:44;100135.09;;;29.02;51.85
46944;BME280;32678;43.852;25.952;2022-08-21T14:03:42;100143.72;;;29.35;52.24
46944;BME280;32678;43.852;25.952;2022-08-21T14:08:39;100157.59;;;29.61;50.94
46944;BME280;32678;43.852;25.952;2022-08-21T14:13:38;100150.03;;;29.57;52.96
46944;BME280;32678;43.852;25.952;2022-08-21T14:18:42;100148.28;;;29.35;53.16
46944;BME280;32678;43.852;25.952;2022-08-21T14:23:39;100135.03;;;29.25;54.77
46944;BME280;32678;43.852;25.952;2022-08-21T14:28:39;100125.81;;;29.19;55.80
46944;BME280;32678;43.852;25.952;2022-08-21T14:33:36;100120.88;;;29.38;56.09
46944;BME280;32678;43.852;25.952;2022-08-21T14:38:34;100109.03;;;29.24;55.73
46944;BME280;32678;43.852;25.952;2022-08-21T14:43:31;100123.09;;;29.19;55.39
46944;BME280;32678;43.852;25.952;2022-08-21T14:48:29;100125.22;;;29.09;55.67
46944;BME280;32678;43.852;25.952;2022-08-21T14:53:26;100123.25;;;29.03;55.63
46944;BME280;32678;43.852;25.952;2022-08-21T14:58:23;100102.50;;;29.04;53.87
46944;BME280;32678;43.852;25.952;2022-08-21T15:03:21;100112.56;;;29.10;54.02
46944;BME280;32678;43.852;25.952;2022-08-21T15:08:18;100111.66;;;29.03;53.91
46944;BME280;32678;43.852;25.952;2022-08-21T15:13:15;100108.56;;;29.06;54.01
46944;BME280;32678;43.852;25.952;2022-08-21T15:18:12;100100.75;;;29.11;53.76
46944;BME280;32678;43.852;25.952;2022-08-21T15:23:09;100090.53;;;29.21;52.84
46944;BME280;32678;43.852;25.952;2022-08-21T15:28:11;100084.19;;;29.43;51.00
46944;BME280;32678;43.852;25.952;2022-08-21T15:33:10;100075.78;;;29.67;48.51
46944;BME280;32678;43.852;25.952;2022-08-21T15:38:07;100074.59;;;29.91;48.09
46944;BME280;32678;43.852;25.952;2022-08-21T15:43:07;100079.22;;;29.91;46.80
46944;BME280;32678;43.852;25.952;2022-08-21T15:48:06;100074.28;;;29.65;47.12
46944;BME280;32678;43.852;25.952;2022-08-21T15:53:03;100112.25;;;28.75;50.24
46944;BME280;32678;43.852;25.952;2022-08-21T15:58:02;100109.25;;;28.25;52.04
46944;BME280;32678;43.852;25.952;2022-08-21T16:03:03;100107.91;;;27.98;53.93
46944;BME280;32678;43.852;25.952;2022-08-21T16:08:01;100097.50;;;27.95;54.20
46944;BME280;32678;43.852;25.952;2022-08-21T16:13:01;100078.50;;;28.57;54.47
46944;BME280;32678;43.852;25.952;2022-08-21T16:17:59;100086.34;;;28.66;58.63
46944;BME280;32678;43.852;25.952;2022-08-21T16:22:56;100106.16;;;28.59;61.35
46944;BME280;32678;43.852;25.952;2022-08-21T16:27:55;100109.72;;;28.06;58.55
46944;BME280;32678;43.852;25.952;2022-08-21T16:32:55;100117.38;;;28.48;60.37
46944;BME280;32678;43.852;25.952;2022-08-21T16:37:52;100127.72;;;28.81;58.25
46944;BME280;32678;43.852;25.952;2022-08-21T16:42:49;100111.34;;;28.60;61.09
46944;BME280;32678;43.852;25.952;2022-08-21T16:47:47;100092.28;;;28.99;60.71
46944;BME280;32678;43.852;25.952;2022-08-21T16:52:45;100091.78;;;28.81;61.95
46944;BME280;32678;43.852;25.952;2022-08-21T16:57:44;100096.50;;;28.41;63.52
46944;BME280;32678;43.852;25.952;2022-08-21T17:02:42;100099.81;;;28.29;61.16
46944;BME280;32678;43.852;25.952;2022-08-21T17:07:41;100117.47;;;28.77;61.06
46944;BME280;32678;43.852;25.952;2022-08-21T17:12:39;100121.63;;;29.17;59.77
46944;BME280;32678;43.852;25.952;2022-08-21T17:17:36;100153.00;;;29.33;61.20
46944;BME280;32678;43.852;25.952;2022-08-21T17:22:33;100171.41;;;28.54;61.82
46944;BME280;32678;43.852;25.952;2022-08-21T17:27:31;100211.13;;;28.15;62.65
46944;BME280;32678;43.852;25.952;2022-08-21T17:32:28;100214.97;;;27.73;62.88
46944;BME280;32678;43.852;25.952;2022-08-21T17:37:26;100223.41;;;28.01;61.76
46944;BME280;32678;43.852;25.952;2022-08-21T17:42:25;100250.94;;;27.88;62.66
46944;BME280;32678;43.852;25.952;2022-08-21T17:47:23;100261.78;;;27.48;63.23
46944;BME280;32678;43.852;25.952;2022-08-21T17:52:20;100275.78;;;27.11;64.12
46944;BME280;32678;43.852;25.952;2022-08-21T17:57:17;100282.66;;;27.38;64.48
46944;BME280;32678;43.852;25.952;2022-08-21T18:02:18;100295.44;;;27.28;65.64
46944;BME280;32678;43.852;25.952;2022-08-21T18:07:17;100294.47;;;27.61;65.88
46944;BME280;32678;43.852;25.952;2022-08-21T18:12:28;100288.88;;;27.38;66.87
46944;BME280;32678;43.852;25.952;2022-08-21T18:17:26;100299.16;;;27.10;67.72
46944;BME280;32678;43.852;25.952;2022-08-21T18:22:27;100299.00;;;26.96;67.92
46944;BME280;32678;43.852;25.952;2022-08-21T18:27:24;100295.81;;;27.25;67.75
46944;BME280;32678;43.852;25.952;2022-08-21T18:32:25;100293.38;;;26.73;67.51
46944;BME280;32678;43.852;25.952;2022-08-21T18:37:28;100285.31;;;26.81;68.18
46944;BME280;32678;43.852;25.952;2022-08-21T18:42:25;100292.03;;;26.85;68.18
46944;BME280;32678;43.852;25.952;2022-08-21T18:47:25;100264.19;;;27.10;67.87
46944;BME280;32678;43.852;25.952;2022-08-21T18:52:24;100262.47;;;26.77;69.88
46944;BME280;32678;43.852;25.952;2022-08-21T18:57:26;100247.88;;;26.29;71.74
46944;BME280;32678;43.852;25.952;2022-08-21T19:02:24;100257.19;;;26.59;71.67
46944;BME280;32678;43.852;25.952;2022-08-21T19:07:20;100250.78;;;26.02;74.49
46944;BME280;32678;43.852;25.952;2022-08-21T19:12:19;100247.31;;;26.68;72.80
46944;BME280;32678;43.852;25.952;2022-08-21T19:17:19;100220.75;;;27.30;70.13
46944;BME280;32678;43.852;25.952;2022-08-21T19:22:16;100232.53;;;27.53;69.96
46944;BME280;32678;43.852;25.952;2022-08-21T19:27:13;100224.75;;;28.13;67.87
46944;BME280;32678;43.852;25.952;2022-08-21T19:32:12;100212.59;;;28.48;63.90
46944;BME280;32678;43.852;25.952;2022-08-21T19:37:13;100220.41;;;27.49;68.02
46944;BME280;32678;43.852;25.952;2022-08-21T19:42:11;100197.75;;;27.11;69.20
46944;BME280;32678;43.852;25.952;2022-08-21T19:47:08;100206.03;;;27.73;68.93
46944;BME280;32678;43.852;25.952;2022-08-21T19:52:06;100202.50;;;28.19;67.21
46944;BME280;32678;43.852;25.952;2022-08-21T19:57:10;100197.88;;;28.28;65.18
46944;BME280;32678;43.852;25.952;2022-08-21T20:02:07;100202.84;;;28.08;65.10
46944;BME280;32678;43.852;25.952;2022-08-21T20:07:07;100208.75;;;28.12;64.76
46944;BME280;32678;43.852;25.952;2022-08-21T20:12:04;100208.56;;;27.74;66.25
46944;BME280;32678;43.852;25.952;2022-08-21T20:17:07;100203.78;;;26.81;70.12
46944;BME280;32678;43.852;25.952;2022-08-21T20:22:06;100197.06;;;26.02;74.27
46944;BME280;32678;43.852;25.952;2022-08-21T20:27:04;100172.72;;;25.62;74.58
46944;BME280;32678;43.852;25.952;2022-08-21T20:32:02;100180.13;;;25.60;76.89
46944;BME280;32678;43.852;25.952;2022-08-21T20:37:00;100181.34;;;25.73;73.22
46944;BME280;32678;43.852;25.952;2022-08-21T20:41:57;100188.47;;;25.57;75.64
46944;BME280;32678;43.852;25.952;2022-08-21T20:46:55;100186.34;;;25.60;75.54
46944;BME280;32678;43.852;25.952;2022-08-21T20:51:53;100181.72;;;25.78;74.34
46944;BME280;32678;43.852;25.952;2022-08-21T20:56:52;100185.25;;;25.79;75.57
46944;BME280;32678;43.852;25.952;2022-08-21T21:01:54;100170.06;;;26.12;73.67
46944;BME280;32678;43.852;25.952;2022-08-21T21:06:56;100187.06;;;25.44;74.62
46944;BME280;32678;43.852;25.952;2022-08-21T21:11:56;100182.53;;;25.19;76.19
46944;BME280;32678;43.852;25.952;2022-08-21T21:16:55;100191.47;;;25.28;76.45
46944;BME280;32678;43.852;25.952;2022-08-21T21:21:55;100164.09;;;25.50;75.58
46944;BME280;32678;43.852;25.952;2022-08-21T21:26:56;100187.34;;;25.59;74.09
46944;BME280;32678;43.852;25.952;2022-08-21T21:31:53;100173.56;;;25.36;76.22
46944;BME280;32678;43.852;25.952;2022-08-21T21:36:52;100194.94;;;25.72;76.33
46944;BME280;32678;43.852;25.952;2022-08-21T21:41:54;100208.59;;;25.86;76.59
46944;BME280;32678;43.852;25.952;2022-08-21T21:46:54;100223.75;;;25.62;76.22
46944;BME280;32678;43.852;25.952;2022-08-21T21:51:58;100224.44;;;25.64;76.54
46944;BME280;32678;43.852;25.952;2022-08-21T21:57:07;100241.31;;;25.30;78.19
46944;BME280;32678;43.852;25.952;2022-08-21T22:02:09;100257.31;;;25.40;77.28
46944;BME280;32678;43.852;25.952;2022-08-21T22:07:09;100259.25;;;25.30;77.88
46944;BME280;32678;43.852;25.952;2022-08-21T22:12:21;100254.19;;;25.27;78.29
46944;BME280;32678;43.852;25.952;2022-08-21T22:17:29;100248.25;;;25.15;78.47
46944;BME280;32678;43.852;25.952;2022-08-21T22:22:28;100256.63;;;25.56;78.44
46944;BME280;32678;43.852;25.952;2022-08-21T22:27:28;100253.38;;;26.20;75.67
46944;BME280;32678;43.852;25.952;2022-08-21T22:32:27;100264.63;;;26.65;73.49
46944;BME280;32678;43.852;25.952;2022-08-21T22:37:27;100272.94;;;26.96;72.04
46944;BME280;32678;43.852;25.952;2022-08-21T22:42:29;100301.38;;;27.07;71.21
46944;BME280;32678;43.852;25.952;2022-08-21T22:47:29;100304.31;;;26.80;71.51
46944;BME280;32678;43.852;25.952;2022-08-21T22:52:29;100300.84;;;27.28;70.32
46944;BME280;32678;43.852;25.952;2022-08-21T22:57:29;100309.97;;;27.51;69.63
46944;BME280;32678;43.852;25.952;2022-08-21T23:02:29;100313.06;;;27.87;68.45
46944;BME280;32678;43.852;25.952;2022-08-21T23:07:35;100318.72;;;28.16;67.82
46944;BME280;32678;43.852;25.952;2022-08-21T23:12:39;100310.59;;;28.32;66.87
46944;BME280;32678;43.852;25.952;2022-08-21T23:17:47;100304.31;;;28.40;65.39
46944;BME280;32678;43.852;25.952;2022-08-21T23:22:49;100311.38;;;28.41;65.68
46944;BME280;32678;43.852;25.952;2022-08-21T23:27:53;100316.31;;;28.68;65.22
46944;BME280;32678;43.852;25.952;2022-08-21T23:38:07;100304.41;;;28.08;66.31
46944;BME280;32678;43.852;25.952;2022-08-21T23:43:10;100320.81;;;27.82;67.29
46944;BME280;32678;43.852;25.952;2022-08-21T23:48:15;100334.84;;;27.69;68.00
46944;BME280;32678;43.852;25.952;2022-08-21T23:53:36;100332.56;;;28.05;65.46
46944;BME280;32678;43.852;25.952;2022-08-21T23:58:47;100318.28;;;27.88;65.38
